Time;durP1;ratioP1;P1;durP2;ratioP2;P2;SDS_P1;SDS_P2;PMS_P1;PMS_P2;Temp;Humidity;BMP_temperature;BMP_pressure;BME280_temperature;BME280_humidity;BME280_pressure;Samples;Min_cycle;Max_cycle;Signal;HPM_P1;HPM_P2
2023/01/21 00:01:48;;;;;;;37.33;17.13;;;0.50;99.90;;;;;;4940372;28;20051;-77
2023/01/21 00:04:13;;;;;;;30.87;17.90;;;0.40;99.90;;;;;;4943406;28;20043;-79
2023/01/21 00:06:39;;;;;;;28.57;16.53;;;0.40;99.90;;;;;;4940993;28;20493;-79
2023/01/21 00:09:04;;;;;;;28.17;14.37;;;0.40;99.90;;;;;;4938287;28;20047;-80
2023/01/21 00:11:30;;;;;;;28.27;16.03;;;0.40;99.90;;;;;;4925190;28;20493;-80
2023/01/21 00:13:57;;;;;;;26.20;16.03;;;0.40;99.90;;;;;;4942891;28;20043;-80
2023/01/21 00:16:22;;;;;;;24.47;16.33;;;0.40;99.90;;;;;;4931403;28;20278;-79
2023/01/21 00:18:48;;;;;;;25.17;16.57;;;0.30;99.90;;;;;;4922744;28;20048;-78
2023/01/21 00:21:14;;;;;;;32.80;18.40;;;0.30;99.90;;;;;;4924310;28;20094;-77
2023/01/21 00:23:40;;;;;;;27.33;16.63;;;0.30;99.90;;;;;;4923882;28;20040;-78
2023/01/21 00:26:07;;;;;;;33.13;16.50;;;0.30;99.90;;;;;;4941324;28;20476;-78
2023/01/21 00:28:35;;;;;;;25.87;18.73;;;0.20;99.90;;;;;;4926807;29;20054;-79
2023/01/21 00:31:03;;;;;;;25.07;18.80;;;0.20;99.90;;;;;;4934426;29;20035;-80
2023/01/21 00:33:29;;;;;;;34.97;15.97;;;0.20;99.90;;;;;;4939095;29;20065;-79
2023/01/21 00:36:00;;;;;;;29.07;18.87;;;0.30;99.90;;;;;;4942434;28;20058;-79
2023/01/21 00:38:25;;;;;;;28.57;16.77;;;0.20;99.90;;;;;;4932139;28;20130;-79
2023/01/21 00:40:51;;;;;;;24.73;16.03;;;0.30;99.90;;;;;;4924543;29;20135;-79
2023/01/21 00:43:16;;;;;;;26.10;15.53;;;0.30;99.90;;;;;;4942793;28;20282;-79
2023/01/21 00:45:42;;;;;;;25.20;17.30;;;0.30;99.90;;;;;;4942252;28;20102;-78
2023/01/21 00:48:07;;;;;;;31.80;15.70;;;0.30;99.90;;;;;;4924039;28;20048;-78
2023/01/21 00:50:33;;;;;;;33.07;17.70;;;0.20;99.90;;;;;;4921439;28;20051;-79
2023/01/21 00:52:58;;;;;;;31.33;17.77;;;0.20;99.90;;;;;;4923453;28;20127;-79
2023/01/21 00:55:24;;;;;;;30.20;17.07;;;0.20;99.90;;;;;;4927195;28;20444;-79
2023/01/21 00:57:51;;;;;;;25.93;15.57;;;0.20;99.90;;;;;;4942245;28;20147;-80
2023/01/21 01:00:18;;;;;;;30.17;17.43;;;0.10;99.90;;;;;;4942517;29;20127;-79
2023/01/21 01:02:43;;;;;;;24.13;15.90;;;0.10;99.90;;;;;;4942006;29;20082;-78
2023/01/21 01:05:09;;;;;;;31.37;19.97;;;0.10;99.90;;;;;;4942045;29;20082;-78
2023/01/21 01:07:35;;;;;;;28.40;16.30;;;0.10;99.90;;;;;;4926167;28;20079;-78
2023/01/21 01:10:00;;;;;;;25.10;14.77;;;0.10;99.90;;;;;;4941795;29;20039;-78
2023/01/21 01:12:27;;;;;;;27.47;16.07;;;0.10;99.90;;;;;;4935408;29;20036;-78
2023/01/21 01:14:53;;;;;;;30.70;18.23;;;0.10;99.90;;;;;;4923143;28;20079;-78
2023/01/21 01:17:19;;;;;;;27.23;15.67;;;0.10;99.90;;;;;;4921797;28;20657;-78
2023/01/21 01:19:44;;;;;;;33.47;19.07;;;0.10;99.90;;;;;;4922134;28;20712;-78
2023/01/21 01:22:10;;;;;;;34.53;18.87;;;0.10;99.90;;;;;;4906272;28;20043;-76
2023/01/21 01:24:35;;;;;;;31.00;17.63;;;0.20;99.90;;;;;;4929031;28;20047;-76
2023/01/21 01:27:01;;;;;;;28.13;17.63;;;0.20;99.90;;;;;;4935971;28;20051;-78
2023/01/21 01:29:27;;;;;;;31.40;16.20;;;0.20;99.90;;;;;;4923052;28;20127;-78
2023/01/21 01:31:53;;;;;;;26.93;17.57;;;0.10;99.90;;;;;;4921398;29;20052;-79
2023/01/21 01:34:18;;;;;;;27.47;17.17;;;0.10;99.90;;;;;;4939288;28;20498;-78
2023/01/21 01:36:44;;;;;;;27.53;15.00;;;0.10;99.90;;;;;;4941938;29;20047;-77
2023/01/21 01:39:09;;;;;;;29.93;16.80;;;0.00;99.90;;;;;;4924991;28;20071;-76
2023/01/21 01:41:36;;;;;;;45.33;22.77;;;0.00;99.90;;;;;;4941501;29;20051;-76
2023/01/21 01:44:04;;;;;;;26.30;17.60;;;0.00;99.90;;;;;;4908442;28;20138;-78
2023/01/21 01:46:34;;;;;;;26.37;15.33;;;0.00;99.90;;;;;;4923061;28;20078;-78
2023/01/21 01:49:14;;;;;;;55.97;19.43;;;0.00;99.90;;;;;;4923103;28;20047;-76
2023/01/21 01:51:56;;;;;;;26.87;14.77;;;-0.10;99.90;;;;;;4908236;28;20048;-77
2023/01/21 01:54:27;;;;;;;26.38;16.88;;;-0.10;99.90;;;;;;4926120;28;20082;-78
2023/01/21 01:56:58;;;;;;;25.03;15.60;;;-0.10;99.90;;;;;;4925020;28;20054;-78
2023/01/21 01:59:25;;;;;;;32.03;22.65;;;-0.10;99.90;;;;;;4925190;28;20039;-77
2023/01/21 02:01:51;;;;;;;32.53;18.77;;;-0.10;99.90;;;;;;4926085;28;20055;-78
2023/01/21 02:04:22;;;;;;;33.20;18.00;;;-0.10;99.90;;;;;;4928000;28;20044;-78
2023/01/21 02:06:49;;;;;;;27.00;18.17;;;-0.10;99.90;;;;;;4964090;28;20050;-77
2023/01/21 02:09:14;;;;;;;35.27;19.37;;;-0.20;99.90;;;;;;4964047;28;20035;-76
2023/01/21 02:11:40;;;;;;;31.70;17.00;;;-0.20;99.90;;;;;;4960799;28;20445;-78
2023/01/21 02:14:06;;;;;;;28.17;16.77;;;-0.20;99.90;;;;;;4927648;28;20557;-77
2023/01/21 02:16:58;;;;;;;25.83;14.87;;;-0.20;99.90;;;;;;4945205;28;20051;-78
2023/01/21 02:19:48;;;;;;;24.75;16.23;;;-0.20;99.90;;;;;;4954000;28;20563;-78
2023/01/21 02:22:43;;;;;;;24.77;17.37;;;-0.20;99.90;;;;;;4929641;29;20134;-77
2023/01/21 02:25:27;;;;;;;40.37;15.67;;;-0.20;99.90;;;;;;4945707;28;20054;-78
2023/01/21 02:28:05;;;;;;;28.97;15.60;;;-0.20;99.90;;;;;;4955905;28;20051;-78
2023/01/21 02:31:05;;;;;;;39.33;20.83;;;-0.30;99.90;;;;;;4954083;28;20055;-78
2023/01/21 02:33:49;;;;;;;26.77;17.03;;;-0.20;99.90;;;;;;4944893;28;20521;-78
2023/01/21 02:36:48;;;;;;;39.33;18.50;;;-0.20;99.90;;;;;;4927306;29;20061;-77
2023/01/21 02:39:38;;;;;;;32.67;18.23;;;-0.20;99.90;;;;;;4911519;29;20083;-76
2023/01/21 02:42:06;;;;;;;23.23;17.80;;;-0.20;99.90;;;;;;4927141;28;20059;-78
2023/01/21 02:44:36;;;;;;;33.77;18.00;;;-0.30;99.90;;;;;;4953984;28;20597;-75
2023/01/21 02:47:13;;;;;;;34.27;15.87;;;-0.30;99.90;;;;;;4947246;28;20051;-78
2023/01/21 02:49:44;;;;;;;36.57;16.70;;;-0.30;99.90;;;;;;4963773;28;20047;-77
2023/01/21 02:52:21;;;;;;;31.90;17.30;;;-0.30;99.90;;;;;;4943634;28;20062;-78
2023/01/21 02:54:52;;;;;;;28.43;17.67;;;-0.30;99.90;;;;;;4943364;28;20039;-78
2023/01/21 02:57:48;;;;;;;34.20;15.63;;;-0.30;99.90;;;;;;5012938;23;20059;-77
2023/01/21 03:00:17;;;;;;;28.70;17.90;;;-0.40;99.90;;;;;;4923884;29;20059;-78
2023/01/21 03:02:55;;;;;;;38.07;17.07;;;-0.30;99.90;;;;;;4942388;29;20094;-78
2023/01/21 03:05:58;;;;;;;31.53;15.97;;;-0.30;99.90;;;;;;4926212;29;20066;-76
2023/01/21 03:08:36;;;;;;;28.55;16.42;;;-0.30;99.90;;;;;;4969195;28;20045;-78
2023/01/21 03:11:11;;;;;;;38.47;16.10;;;-0.30;99.90;;;;;;4990757;28;20050;-76
2023/01/21 03:19:20;;;;;;;27.80;17.60;;;-0.30;99.90;;;;;;5007273;28;20092;-77
2023/01/21 03:21:47;;;;;;;25.87;17.27;;;-0.30;99.90;;;;;;5024518;28;20053;-77
2023/01/21 03:24:14;;;;;;;42.03;16.83;;;-0.30;99.90;;;;;;5024562;28;20137;-76
2023/01/21 03:26:46;;;;;;;24.20;17.20;;;-0.30;99.90;;;;;;5023783;28;20627;-77
2023/01/21 03:29:20;;;;;;;29.42;15.82;;;-0.30;99.90;;;;;;4965664;28;20099;-77
2023/01/21 03:31:50;;;;;;;29.00;16.73;;;-0.30;99.90;;;;;;4943637;29;20066;-78
2023/01/21 03:34:18;;;;;;;28.83;17.00;;;-0.40;99.90;;;;;;4926943;28;20051;-78
2023/01/21 03:36:51;;;;;;;24.47;14.33;;;-0.40;99.90;;;;;;4924568;29;20051;-78
2023/01/21 03:39:52;;;;;;;22.70;14.53;;;-0.30;99.90;;;;;;5001995;28;20037;-77
2023/01/21 03:42:19;;;;;;;21.53;14.70;;;-0.30;99.90;;;;;;5023865;28;20137;-77
2023/01/21 03:44:45;;;;;;;28.17;17.07;;;-0.30;99.90;;;;;;5006874;28;20045;-76
2023/01/21 03:47:30;;;;;;;35.63;17.63;;;-0.30;99.90;;;;;;5024414;28;20881;-78
2023/01/21 03:49:58;;;;;;;32.87;15.57;;;-0.30;99.90;;;;;;5024301;28;20049;-77
2023/01/21 03:52:25;;;;;;;27.00;16.70;;;-0.30;99.90;;;;;;5024385;28;20060;-77
2023/01/21 03:54:51;;;;;;;28.47;18.23;;;-0.30;99.90;;;;;;5005572;28;20084;-77
2023/01/21 03:57:17;;;;;;;36.17;20.37;;;-0.30;99.90;;;;;;4994586;28;20055;-77
2023/01/21 03:59:43;;;;;;;31.10;16.40;;;-0.30;99.90;;;;;;4943181;28;20455;-78
2023/01/21 04:02:09;;;;;;;33.67;19.83;;;-0.20;99.90;;;;;;4942111;29;20086;-76
2023/01/21 04:04:34;;;;;;;23.03;14.00;;;-0.20;99.90;;;;;;4943429;29;20109;-77
2023/01/21 04:07:00;;;;;;;36.00;19.23;;;-0.30;99.90;;;;;;4943530;28;20581;-76
2023/01/21 04:09:25;;;;;;;37.73;20.00;;;-0.30;99.90;;;;;;4942603;28;20055;-78
2023/01/21 04:11:51;;;;;;;25.57;16.20;;;-0.30;99.90;;;;;;4942952;29;20058;-77
2023/01/21 04:14:17;;;;;;;30.60;14.50;;;-0.30;99.90;;;;;;4942772;29;20043;-76
2023/01/21 04:16:42;;;;;;;42.30;20.43;;;-0.30;99.90;;;;;;4926146;29;20059;-78
2023/01/21 04:19:08;;;;;;;33.13;18.60;;;-0.30;99.90;;;;;;4943008;29;20044;-78
2023/01/21 04:21:34;;;;;;;26.60;15.23;;;-0.30;99.90;;;;;;4978245;28;20053;-76
2023/01/21 04:23:59;;;;;;;30.20;18.70;;;-0.30;99.90;;;;;;5004128;28;20071;-76
2023/01/21 04:26:25;;;;;;;26.47;16.87;;;-0.40;99.90;;;;;;4925257;28;20059;-76
2023/01/21 04:28:50;;;;;;;26.40;17.07;;;-0.40;99.90;;;;;;4906904;28;20035;-78
2023/01/21 04:31:16;;;;;;;32.00;18.87;;;-0.40;99.90;;;;;;4924221;28;20101;-78
2023/01/21 04:33:42;;;;;;;39.13;16.53;;;-0.40;99.90;;;;;;4923586;29;20521;-77
2023/01/21 04:36:07;;;;;;;22.23;14.07;;;-0.50;99.90;;;;;;4924013;28;20051;-77
2023/01/21 04:38:33;;;;;;;42.23;16.03;;;-0.50;99.90;;;;;;4924386;28;20126;-76
2023/01/21 04:40:59;;;;;;;31.60;16.17;;;-0.50;99.90;;;;;;4922909;28;20560;-77
2023/01/21 04:43:24;;;;;;;26.17;15.73;;;-0.50;99.90;;;;;;4932358;29;20035;-77
2023/01/21 04:45:50;;;;;;;33.23;15.90;;;-0.50;99.90;;;;;;4941379;28;20508;-78
2023/01/21 04:48:16;;;;;;;46.03;20.03;;;-0.50;99.90;;;;;;4924535;28;20054;-78
2023/01/21 04:50:42;;;;;;;29.27;16.30;;;-0.50;99.90;;;;;;4941857;28;20324;-78
2023/01/21 04:53:07;;;;;;;26.10;16.40;;;-0.40;99.90;;;;;;4937584;28;20599;-77
2023/01/21 04:55:33;;;;;;;28.43;17.07;;;-0.50;99.90;;;;;;5010235;28;20553;-77
2023/01/21 04:57:58;;;;;;;31.83;17.27;;;-0.40;99.90;;;;;;4949581;28;20050;-77
2023/01/21 05:00:24;;;;;;;29.37;20.07;;;-0.40;99.90;;;;;;4938506;29;20152;-78
2023/01/21 05:02:50;;;;;;;30.17;19.40;;;-0.50;99.90;;;;;;4941639;28;20517;-78
2023/01/21 05:05:15;;;;;;;32.30;18.40;;;-0.50;99.90;;;;;;4937986;28;20406;-76
2023/01/21 05:07:41;;;;;;;31.90;17.13;;;-0.50;99.90;;;;;;5015778;28;20037;-78
2023/01/21 05:10:08;;;;;;;34.60;17.90;;;-0.50;99.90;;;;;;5021203;28;20045;-78
2023/01/21 05:12:34;;;;;;;23.70;15.23;;;-0.50;99.90;;;;;;5022715;28;20037;-77
2023/01/21 05:14:59;;;;;;;26.43;16.73;;;-0.40;99.90;;;;;;5022195;28;20400;-77
2023/01/21 05:17:25;;;;;;;35.67;18.40;;;-0.50;99.90;;;;;;5022448;28;20080;-77
2023/01/21 05:19:51;;;;;;;30.77;15.23;;;-0.40;99.90;;;;;;5021879;28;20049;-77
2023/01/21 05:22:16;;;;;;;27.40;15.70;;;-0.40;99.90;;;;;;5022062;28;20033;-77
2023/01/21 05:24:42;;;;;;;28.87;17.73;;;-0.40;99.90;;;;;;5021175;28;20037;-77
2023/01/21 05:27:08;;;;;;;35.40;18.80;;;-0.40;99.90;;;;;;4996970;28;20324;-76
2023/01/21 05:29:33;;;;;;;37.20;20.37;;;-0.40;99.90;;;;;;5015349;28;20052;-78
2023/01/21 05:31:59;;;;;;;23.63;17.33;;;-0.30;99.90;;;;;;5025823;28;20045;-77
2023/01/21 05:34:24;;;;;;;27.27;19.37;;;-0.30;99.90;;;;;;5008304;28;20091;-77
2023/01/21 05:36:50;;;;;;;30.83;17.77;;;-0.30;99.90;;;;;;5025442;28;20048;-77
2023/01/21 05:39:16;;;;;;;34.97;20.87;;;-0.20;99.90;;;;;;5025107;28;20450;-77
2023/01/21 05:41:41;;;;;;;37.83;19.67;;;-0.20;99.90;;;;;;5024989;28;20531;-77
2023/01/21 05:44:10;;;;;;;36.13;19.87;;;-0.20;99.90;;;;;;4968628;28;20645;-76
2023/01/21 05:46:35;;;;;;;43.40;21.57;;;-0.10;99.90;;;;;;4944614;28;20051;-76
2023/01/21 05:49:01;;;;;;;33.47;18.97;;;-0.10;99.90;;;;;;4961276;28;20060;-77
2023/01/21 05:51:27;;;;;;;42.00;21.40;;;-0.10;99.90;;;;;;5025854;28;20407;-78
2023/01/21 05:53:52;;;;;;;35.33;22.10;;;0.00;99.90;;;;;;5025490;28;20041;-78
2023/01/21 05:56:18;;;;;;;37.20;22.03;;;0.00;99.90;;;;;;5023915;28;20052;-79
2023/01/21 05:58:43;;;;;;;38.03;23.87;;;0.00;99.90;;;;;;4993010;28;20555;-79
2023/01/21 06:01:09;;;;;;;35.70;23.67;;;0.00;99.90;;;;;;4925177;28;20097;-80
2023/01/21 06:03:36;;;;;;;29.83;19.33;;;0.00;99.90;;;;;;4925376;28;20089;-76
2023/01/21 06:06:02;;;;;;;35.90;21.00;;;0.00;99.90;;;;;;4925713;28;20047;-77
2023/01/21 06:08:28;;;;;;;39.10;21.00;;;0.10;99.90;;;;;;4936745;28;20076;-79
2023/01/21 06:10:55;;;;;;;33.73;21.77;;;0.10;99.90;;;;;;4942151;28;20047;-79
2023/01/21 06:13:21;;;;;;;38.93;21.97;;;0.10;99.90;;;;;;4927204;28;20047;-76
2023/01/21 06:15:48;;;;;;;37.00;19.00;;;0.10;99.90;;;;;;4943531;28;20440;-79
2023/01/21 06:18:13;;;;;;;33.83;19.80;;;0.10;99.90;;;;;;4944227;28;20248;-79
2023/01/21 06:20:39;;;;;;;39.43;21.47;;;0.20;99.90;;;;;;4946238;28;20794;-79
2023/01/21 06:23:05;;;;;;;40.77;26.17;;;0.10;99.90;;;;;;4925338;28;20036;-77
2023/01/21 06:25:31;;;;;;;40.07;22.37;;;0.20;99.90;;;;;;5006671;28;20040;-78
2023/01/21 06:27:57;;;;;;;30.97;20.57;;;0.20;99.90;;;;;;4936705;28;20055;-79
2023/01/21 06:30:24;;;;;;;44.87;22.50;;;0.20;99.90;;;;;;4943728;28;20043;-79
2023/01/21 06:32:52;;;;;;;37.40;20.97;;;0.20;99.90;;;;;;4926066;28;20051;-79
2023/01/21 06:35:18;;;;;;;36.90;22.80;;;0.20;99.90;;;;;;4926297;28;20043;-79
2023/01/21 06:37:44;;;;;;;35.93;20.53;;;0.20;99.90;;;;;;4942599;29;20089;-79
2023/01/21 06:40:11;;;;;;;40.00;22.80;;;0.20;99.90;;;;;;4942686;29;20438;-79
2023/01/21 06:42:37;;;;;;;53.33;20.83;;;0.10;99.90;;;;;;4943281;28;20130;-77
2023/01/21 06:45:03;;;;;;;38.43;22.40;;;0.20;99.90;;;;;;4943926;28;20122;-79
2023/01/21 06:47:29;;;;;;;39.00;23.13;;;0.20;99.90;;;;;;4910504;28;20054;-79
2023/01/21 06:49:55;;;;;;;48.63;23.83;;;0.20;99.90;;;;;;4989444;28;20484;-78
2023/01/21 06:52:23;;;;;;;47.90;21.97;;;0.10;99.90;;;;;;4943586;28;20134;-77
2023/01/21 06:54:49;;;;;;;39.83;23.10;;;0.10;99.90;;;;;;4923736;28;20170;-78
2023/01/21 06:57:14;;;;;;;48.90;23.77;;;0.10;99.90;;;;;;4956570;28;20183;-78
2023/01/21 06:59:40;;;;;;;36.83;20.60;;;0.10;99.90;;;;;;5024117;28;20454;-77
2023/01/21 07:02:06;;;;;;;40.67;19.57;;;0.10;99.90;;;;;;5024253;28;20383;-78
2023/01/21 07:04:32;;;;;;;30.10;20.93;;;0.00;99.90;;;;;;5023936;28;20046;-78
2023/01/21 07:06:57;;;;;;;37.43;20.03;;;0.00;99.90;;;;;;5023795;28;20398;-78
2023/01/21 07:09:23;;;;;;;32.97;21.03;;;0.00;99.90;;;;;;5005650;28;20037;-78
2023/01/21 07:11:49;;;;;;;40.37;19.87;;;0.00;99.90;;;;;;5023480;28;20478;-77
2023/01/21 07:14:15;;;;;;;30.40;18.87;;;0.00;99.90;;;;;;4990525;28;20049;-78
2023/01/21 07:16:40;;;;;;;37.63;19.93;;;0.00;99.90;;;;;;5023513;28;20046;-78
2023/01/21 07:19:06;;;;;;;32.13;17.87;;;0.00;99.90;;;;;;5023823;28;20309;-78
2023/01/21 07:21:31;;;;;;;35.20;19.80;;;0.00;99.90;;;;;;5024231;28;20038;-76
2023/01/21 07:23:57;;;;;;;31.97;21.93;;;0.00;99.90;;;;;;5022765;28;20396;-78
2023/01/21 07:26:23;;;;;;;39.67;24.33;;;0.00;99.90;;;;;;5024123;28;20120;-78
2023/01/21 07:28:48;;;;;;;36.90;20.53;;;0.00;99.90;;;;;;5023645;28;20041;-78
2023/01/21 07:31:14;;;;;;;34.43;18.83;;;0.10;99.90;;;;;;5023641;28;20042;-78
2023/01/21 07:33:40;;;;;;;39.17;23.70;;;0.10;99.90;;;;;;5023188;28;20046;-77
2023/01/21 07:36:06;;;;;;;37.83;24.00;;;0.10;99.90;;;;;;5023417;28;20132;-78
2023/01/21 07:38:31;;;;;;;46.70;22.13;;;0.10;99.90;;;;;;5005576;28;20048;-76
2023/01/21 07:40:57;;;;;;;39.23;25.47;;;0.20;99.90;;;;;;5021879;28;20107;-77
2023/01/21 07:43:23;;;;;;;43.50;25.00;;;0.20;99.90;;;;;;5023391;28;20088;-78
2023/01/21 07:45:49;;;;;;;49.80;24.07;;;0.20;99.90;;;;;;5022425;28;20037;-77
2023/01/21 07:48:14;;;;;;;42.47;24.27;;;0.20;99.90;;;;;;5021946;28;20038;-78
2023/01/21 07:50:40;;;;;;;34.80;21.20;;;0.20;99.90;;;;;;5017274;28;20053;-78
2023/01/21 07:53:06;;;;;;;41.53;23.37;;;0.20;99.90;;;;;;5010239;28;20124;-77
2023/01/21 07:55:32;;;;;;;37.83;23.27;;;0.20;99.90;;;;;;5008254;28;20045;-78
2023/01/21 07:57:58;;;;;;;39.63;20.60;;;0.30;99.90;;;;;;4966083;28;20174;-78
2023/01/21 08:00:26;;;;;;;40.20;23.57;;;0.30;99.90;;;;;;4929769;28;20131;-77
2023/01/21 08:02:55;;;;;;;37.87;21.10;;;0.30;99.90;;;;;;4916897;29;20043;-78
2023/01/21 08:05:22;;;;;;;40.00;22.80;;;0.30;99.90;;;;;;4931982;28;20047;-77
2023/01/21 08:07:48;;;;;;;40.80;24.57;;;0.30;99.90;;;;;;4929617;29;20040;-77
2023/01/21 08:10:15;;;;;;;35.90;24.63;;;0.30;99.90;;;;;;4933620;29;20047;-78
2023/01/21 08:12:41;;;;;;;40.57;23.47;;;0.30;99.90;;;;;;4927153;28;20039;-77
2023/01/21 08:15:07;;;;;;;39.17;23.80;;;0.30;99.90;;;;;;4933783;29;20053;-78
2023/01/21 08:17:36;;;;;;;39.03;25.33;;;0.30;99.90;;;;;;4940031;28;20043;-78
2023/01/21 08:20:01;;;;;;;40.37;21.50;;;0.40;99.90;;;;;;4919645;29;20047;-77
2023/01/21 08:22:27;;;;;;;37.97;25.30;;;0.40;99.90;;;;;;4927346;28;20048;-77
2023/01/21 08:24:53;;;;;;;43.43;23.87;;;0.40;99.90;;;;;;4932103;28;20179;-78
2023/01/21 08:27:18;;;;;;;49.27;27.40;;;0.40;99.90;;;;;;4930552;29;20122;-78
2023/01/21 08:29:45;;;;;;;37.20;24.93;;;0.40;99.90;;;;;;4933367;28;20056;-79
2023/01/21 08:32:11;;;;;;;43.83;22.03;;;0.40;99.90;;;;;;4940751;28;20121;-79
2023/01/21 08:34:36;;;;;;;51.50;27.03;;;0.50;99.90;;;;;;4932901;28;20134;-77
2023/01/21 08:37:02;;;;;;;34.77;20.93;;;0.50;99.90;;;;;;4936522;28;20101;-78
2023/01/21 08:39:28;;;;;;;36.97;26.50;;;0.50;99.90;;;;;;4922989;29;20197;-78
2023/01/21 08:41:53;;;;;;;49.77;26.83;;;0.60;99.90;;;;;;4929920;29;20066;-79
2023/01/21 08:44:19;;;;;;;49.70;24.93;;;0.60;99.90;;;;;;4927253;28;20070;-78
2023/01/21 08:46:44;;;;;;;43.33;23.80;;;0.60;99.90;;;;;;4930817;29;20043;-80
2023/01/21 08:49:10;;;;;;;45.43;23.33;;;0.50;99.90;;;;;;4929888;29;20114;-79
2023/01/21 08:51:36;;;;;;;46.10;28.20;;;0.60;99.90;;;;;;4911216;28;20071;-79
2023/01/21 08:54:03;;;;;;;44.20;25.07;;;0.50;99.90;;;;;;4939296;29;20489;-79
2023/01/21 08:56:28;;;;;;;44.83;24.43;;;0.50;99.90;;;;;;4913985;29;20043;-78
2023/01/21 08:58:56;;;;;;;42.33;24.43;;;0.50;99.90;;;;;;4917819;29;20052;-80
2023/01/21 09:01:23;;;;;;;54.03;33.03;;;0.50;99.90;;;;;;4922935;28;20520;-79
2023/01/21 09:03:52;;;;;;;42.47;23.30;;;0.50;99.90;;;;;;4924575;28;20048;-79
2023/01/21 09:06:18;;;;;;;53.53;25.17;;;0.60;99.90;;;;;;4926312;28;20074;-79
2023/01/21 09:08:43;;;;;;;64.10;27.50;;;0.50;99.90;;;;;;4906977;28;20133;-79
2023/01/21 09:11:09;;;;;;;34.80;23.10;;;0.50;99.90;;;;;;4918580;29;20047;-79
2023/01/21 09:13:37;;;;;;;42.10;23.73;;;0.50;99.90;;;;;;4937235;28;20044;-78
2023/01/21 09:16:34;;;;;;;36.13;21.23;;;0.50;99.90;;;;;;4926435;29;20079;-77
2023/01/21 09:19:00;;;;;;;42.07;23.87;;;0.50;99.90;;;;;;4915286;28;20363;-77
2023/01/21 09:21:26;;;;;;;35.83;21.67;;;0.50;99.90;;;;;;4920559;28;20647;-78
2023/01/21 09:23:52;;;;;;;40.03;21.60;;;0.60;99.90;;;;;;4918481;29;20039;-78
2023/01/21 09:26:22;;;;;;;37.77;21.83;;;0.50;99.90;;;;;;4914549;28;20485;-78
2023/01/21 09:28:59;;;;;;;34.60;21.33;;;0.60;99.90;;;;;;4920035;28;20048;-77
2023/01/21 09:31:27;;;;;;;39.23;23.77;;;0.60;99.90;;;;;;4915475;28;20802;-78
2023/01/21 09:33:59;;;;;;;36.97;21.20;;;0.70;99.90;;;;;;4915567;29;20126;-78
2023/01/21 09:36:27;;;;;;;46.43;26.03;;;0.70;99.90;;;;;;4942059;28;20538;-77
2023/01/21 09:38:53;;;;;;;42.23;23.40;;;0.80;99.90;;;;;;4908044;29;20341;-78
2023/01/21 09:41:39;;;;;;;36.87;22.33;;;0.80;99.90;;;;;;4926421;28;20051;-78
2023/01/21 09:44:13;;;;;;;36.07;23.57;;;0.80;99.90;;;;;;4925970;29;20054;-78
2023/01/21 09:47:13;;;;;;;34.00;23.47;;;0.90;99.90;;;;;;4908450;28;20146;-78
2023/01/21 09:49:48;;;;;;;41.80;26.53;;;0.90;99.90;;;;;;4908776;29;20470;-78
2023/01/21 09:52:40;;;;;;;47.93;23.20;;;1.00;99.90;;;;;;4890155;28;20044;-78
2023/01/21 09:55:39;;;;;;;37.47;25.40;;;1.00;99.90;;;;;;4898784;28;20130;-82
2023/01/21 09:58:42;;;;;;;39.37;22.97;;;1.10;99.90;;;;;;4922047;29;20138;-79
2023/01/21 10:01:17;;;;;;;44.33;24.42;;;1.10;99.90;;;;;;4938029;28;20126;-79
2023/01/21 10:03:46;;;;;;;35.60;23.10;;;1.10;99.90;;;;;;4943107;28;20285;-79
2023/01/21 10:06:42;;;;;;;37.17;22.10;;;1.20;99.90;;;;;;4933278;28;20047;-79
2023/01/21 10:09:20;;;;;;;46.03;25.63;;;1.20;99.90;;;;;;4924585;28;20052;-79
2023/01/21 10:11:55;;;;;;;35.83;22.57;;;1.20;99.90;;;;;;4942941;28;20134;-79
2023/01/21 10:14:42;;;;;;;42.10;23.97;;;1.30;99.90;;;;;;4942878;28;20078;-79
2023/01/21 10:17:49;;;;;;;41.43;25.33;;;1.30;99.90;;;;;;4943579;29;20359;-79
2023/01/21 10:20:20;;;;;;;44.40;24.10;;;1.40;99.90;;;;;;4923213;28;20044;-79
2023/01/21 10:23:01;;;;;;;40.47;22.40;;;1.40;99.90;;;;;;4924489;29;20276;-79
2023/01/21 10:25:29;;;;;;;48.63;28.07;;;1.40;99.90;;;;;;4966327;28;20132;-79
2023/01/21 10:28:29;;;;;;;39.90;25.50;;;1.40;99.90;;;;;;4929936;28;20344;-79
2023/01/21 10:31:01;;;;;;;44.80;27.60;;;1.50;99.90;;;;;;4941414;28;20040;-79
2023/01/21 10:33:31;;;;;;;36.80;23.33;;;1.50;99.90;;;;;;4942346;28;20051;-79
2023/01/21 10:36:15;;;;;;;44.40;26.97;;;1.60;99.90;;;;;;4932155;28;20055;-78
2023/01/21 10:38:48;;;;;;;48.70;27.00;;;1.60;99.90;;;;;;4931047;29;20094;-79
2023/01/21 10:41:31;;;;;;;38.57;26.13;;;1.60;99.90;;;;;;4939446;28;21760;-78
2023/01/21 10:44:23;;;;;;;41.67;22.73;;;1.70;99.90;;;;;;4935388;29;20077;-78
2023/01/21 10:47:07;;;;;;;31.73;20.80;;;1.80;99.90;;;;;;4900906;29;20134;-77
2023/01/21 10:49:54;;;;;;;47.40;24.50;;;1.80;99.90;;;;;;4937466;28;20043;-77
2023/01/21 10:52:39;;;;;;;41.63;24.70;;;1.80;99.90;;;;;;4931468;29;20101;-77
2023/01/21 10:55:17;;;;;;;35.73;23.00;;;1.80;99.90;;;;;;4967581;28;20050;-77
2023/01/21 10:58:00;;;;;;;37.60;22.67;;;1.70;99.90;;;;;;4972147;28;20175;-77
2023/01/21 11:00:28;;;;;;;37.97;21.30;;;1.80;99.90;;;;;;5017398;28;20128;-77
2023/01/21 11:02:57;;;;;;;36.23;18.60;;;1.80;99.90;;;;;;5013000;28;20155;-77
2023/01/21 11:05:27;;;;;;;30.80;19.03;;;1.80;99.90;;;;;;5022435;28;20042;-77
2023/01/21 11:07:56;;;;;;;23.03;15.27;;;1.80;99.90;;;;;;5019587;28;20052;-75
2023/01/21 11:10:24;;;;;;;24.70;12.83;;;1.80;99.90;;;;;;5013630;28;20152;-77
2023/01/21 11:12:52;;;;;;;30.67;15.10;;;1.80;99.90;;;;;;5019856;28;20054;-81
2023/01/21 11:15:19;;;;;;;22.90;15.20;;;1.80;99.90;;;;;;5004953;28;20065;-77
2023/01/21 11:17:47;;;;;;;27.27;13.70;;;1.90;99.90;;;;;;5016015;28;20041;-78
2023/01/21 11:20:34;;;;;;;17.10;12.63;;;1.90;99.90;;;;;;5007672;28;20117;-79
2023/01/21 11:23:03;;;;;;;22.10;11.60;;;1.90;99.90;;;;;;5018194;28;20285;-78
2023/01/21 11:25:41;;;;;;;18.20;12.60;;;1.90;99.90;;;;;;5017772;28;20048;-79
2023/01/21 11:28:25;;;;;;;23.23;12.87;;;1.90;99.90;;;;;;4995429;28;20034;-79
2023/01/21 11:31:09;;;;;;;24.67;12.30;;;2.00;99.90;;;;;;5022070;28;20068;-79
2023/01/21 11:33:36;;;;;;;20.37;10.97;;;2.00;99.90;;;;;;5023224;28;20531;-79
2023/01/21 11:36:13;;;;;;;16.23;8.83;;;2.00;99.90;;;;;;5019261;28;20045;-79
2023/01/21 11:38:39;;;;;;;17.63;8.93;;;2.00;99.90;;;;;;5020908;28;20175;-80
2023/01/21 11:41:20;;;;;;;12.30;8.23;;;2.00;99.90;;;;;;5005501;28;20057;-80
2023/01/21 11:43:49;;;;;;;14.80;9.70;;;2.00;99.90;;;;;;5006733;28;20358;-80
2023/01/21 11:46:34;;;;;;;14.60;9.70;;;2.00;99.90;;;;;;5007014;28;20041;-78
2023/01/21 11:49:05;;;;;;;11.17;7.40;;;2.10;99.90;;;;;;4992121;28;20130;-77
2023/01/21 11:51:32;;;;;;;12.95;8.95;;;2.10;99.90;;;;;;5011605;28;20300;-78
2023/01/21 11:54:16;;;;;;;15.43;9.93;;;2.10;99.90;;;;;;5010399;28;20048;-77
2023/01/21 11:56:59;;;;;;;11.77;8.57;;;2.10;99.90;;;;;;5015298;28;20604;-77
2023/01/21 11:59:38;;;;;;;18.00;7.80;;;2.10;99.90;;;;;;4903220;29;20051;-77
2023/01/21 12:02:28;;;;;;;12.40;7.97;;;2.10;99.90;;;;;;4921252;28;20036;-78
2023/01/21 12:05:25;;;;;;;16.33;8.17;;;2.20;99.90;;;;;;4889803;29;20063;-76
2023/01/21 12:07:51;;;;;;;9.53;6.73;;;2.10;99.90;;;;;;4910871;28;20154;-78
2023/01/21 12:10:42;;;;;;;9.33;8.37;;;2.20;99.90;;;;;;4921105;28;20139;-77
2023/01/21 12:13:13;;;;;;;12.13;6.90;;;2.20;99.90;;;;;;4919945;28;20483;-76
2023/01/21 12:15:39;;;;;;;16.30;6.73;;;2.20;99.90;;;;;;4904377;29;20486;-75
2023/01/21 12:18:35;;;;;;;10.67;7.23;;;2.30;99.90;;;;;;4913847;29;20031;-76
2023/01/21 12:21:13;;;;;;;14.00;9.57;;;2.30;99.90;;;;;;4911335;28;20046;-80
2023/01/21 16:52:18;;;;;;;13.60;7.13;;;1.20;99.90;;;;;;5168347;22;1238811;-76
2023/01/21 16:54:52;;;;;;;23.07;10.03;;;1.20;99.90;;;;;;6217959;23;20019;-76
2023/01/21 16:57:23;;;;;;;13.90;7.63;;;1.10;99.90;;;;;;6217008;23;20012;-76
2023/01/21 16:59:48;;;;;;;12.53;8.17;;;1.10;99.90;;;;;;6216636;23;20352;-76
2023/01/21 17:02:27;;;;;;;13.83;7.10;;;1.10;99.90;;;;;;6216512;23;20016;-76
2023/01/21 17:04:57;;;;;;;14.40;8.67;;;1.10;99.90;;;;;;6217912;23;20017;-76
2023/01/21 17:07:29;;;;;;;11.83;7.97;;;1.00;99.90;;;;;;6216841;23;20083;-76
2023/01/21 17:10:02;;;;;;;10.88;9.68;;;1.00;99.90;;;;;;6216583;23;20020;-76
2023/01/21 17:12:29;;;;;;;15.73;10.27;;;1.00;99.90;;;;;;6218069;23;20030;-77
2023/01/21 17:15:00;;;;;;;14.00;8.20;;;1.00;99.90;;;;;;6217550;23;20122;-76
2023/01/21 17:17:30;;;;;;;14.53;9.20;;;0.90;99.90;;;;;;6217808;23;20357;-76
2023/01/21 17:19:56;;;;;;;12.43;10.20;;;0.90;99.90;;;;;;6215777;23;20022;-79
2023/01/21 17:22:25;;;;;;;19.70;8.10;;;0.80;99.90;;;;;;6215821;23;20321;-75
2023/01/21 17:25:26;;;;;;;12.10;8.37;;;0.90;99.90;;;;;;6216384;23;20510;-78
2023/01/21 17:27:54;;;;;;;13.93;10.17;;;0.90;99.90;;;;;;6094050;23;20112;-76